createdAt,value
2023-01-06T00:00:30.872Z,1012.57
2023-01-06T00:01:30.813Z,1012.56
2023-01-06T00:02:30.870Z,1012.56
2023-01-06T00:03:30.754Z,1012.55
2023-01-06T00:04:30.831Z,1012.56
2023-01-06T00:05:30.718Z,1012.53
2023-01-06T00:06:30.700Z,1012.57
2023-01-06T00:07:30.655Z,1012.55
2023-01-06T00:08:30.642Z,1012.57
2023-01-06T00:09:30.624Z,1012.57
2023-01-06T00:10:30.708Z,1012.58
2023-01-06T00:11:30.559Z,1012.54
2023-01-06T00:12:30.543Z,1012.57
2023-01-06T00:13:30.510Z,1012.54
2023-01-06T00:14:30.487Z,1012.55
2023-01-06T00:15:30.550Z,1012.53
2023-01-06T00:16:30.433Z,1012.56
2023-01-06T00:17:30.411Z,1012.50
2023-01-06T00:18:30.386Z,1012.53
2023-01-06T00:19:30.359Z,1012.50
2023-01-06T00:20:30.342Z,1012.55
2023-01-06T00:21:30.324Z,1012.48
2023-01-06T00:22:30.290Z,1012.50
2023-01-06T00:23:30.268Z,1012.49
2023-01-06T00:24:30.237Z,1012.47
2023-01-06T00:25:30.219Z,1012.49
2023-01-06T00:26:30.315Z,1012.51
2023-01-06T00:27:30.171Z,1012.49
2023-01-06T00:28:30.143Z,1012.43
2023-01-06T00:29:30.113Z,1012.48
2023-01-06T00:30:30.098Z,1012.41
2023-01-06T00:31:30.167Z,1012.42
2023-01-06T00:32:30.043Z,1012.38
2023-01-06T00:33:30.018Z,1012.33
2023-01-06T00:34:29.996Z,1012.34
2023-01-06T00:35:29.965Z,1012.39
2023-01-06T00:36:29.945Z,1012.30
2023-01-06T00:37:29.920Z,1012.36
2023-01-06T00:38:29.903Z,1012.34
2023-01-06T00:39:29.869Z,1012.33
2023-01-06T00:40:29.841Z,1012.31
2023-01-06T00:41:29.815Z,1012.26
2023-01-06T00:42:29.914Z,1012.26
2023-01-06T00:43:29.765Z,1012.30
2023-01-06T00:44:29.746Z,1012.26
2023-01-06T00:45:29.714Z,1012.28
2023-01-06T00:46:30.002Z,1012.25
2023-01-06T00:47:29.675Z,1012.24
2023-01-06T00:48:29.650Z,1012.27
2023-01-06T00:49:29.617Z,1012.25
2023-01-06T00:50:29.610Z,1012.26
2023-01-06T00:51:29.573Z,1012.23
2023-01-06T00:52:29.552Z,1012.25
2023-01-06T00:53:29.533Z,1012.26
2023-01-06T00:54:29.504Z,1012.21
2023-01-06T00:55:29.469Z,1012.20
2023-01-06T00:56:29.450Z,1012.20
2023-01-06T00:57:29.426Z,1012.20
2023-01-06T00:58:29.524Z,1012.22
2023-01-06T00:59:29.372Z,1012.20
2023-01-06T01:00:29.375Z,1012.20
2023-01-06T01:01:29.456Z,1012.19
2023-01-06T01:02:29.512Z,1012.20
2023-01-06T01:03:29.273Z,1012.18
2023-01-06T01:04:29.371Z,1012.16
2023-01-06T01:05:29.223Z,1012.15
2023-01-06T01:06:29.206Z,1012.10
2023-01-06T01:07:29.176Z,1012.13
2023-01-06T01:08:29.154Z,1012.04
2023-01-06T01:09:29.133Z,1012.09
2023-01-06T01:10:29.107Z,1012.08
2023-01-06T01:11:29.079Z,1012.05
2023-01-06T01:12:29.063Z,1012.09
2023-01-06T01:13:29.034Z,1012.14
2023-01-06T01:14:29.129Z,1012.14
2023-01-06T01:15:29.005Z,1012.16
2023-01-06T01:16:28.958Z,1012.17
2023-01-06T01:17:28.945Z,1012.16
2023-01-06T01:18:28.913Z,1012.04
2023-01-06T01:19:28.886Z,1012.12
2023-01-06T01:20:28.855Z,1012.10
2023-01-06T01:21:28.830Z,1012.05
2023-01-06T01:22:28.819Z,1012.09
2023-01-06T01:23:28.787Z,1012.06
2023-01-06T01:24:28.761Z,1012.01
2023-01-06T01:25:28.734Z,1012.00
2023-01-06T01:26:28.711Z,1011.98
2023-01-06T01:27:28.688Z,1011.99
2023-01-06T01:28:28.661Z,1012.01
2023-01-06T01:29:28.635Z,1011.94
2023-01-06T01:30:28.746Z,1012.05
2023-01-06T01:31:28.706Z,1012.07
2023-01-06T01:32:28.564Z,1012.02
2023-01-06T01:33:28.534Z,1012.01
2023-01-06T01:34:28.525Z,1012.01
2023-01-06T01:35:28.485Z,1012.00
2023-01-06T01:36:28.476Z,1011.99
2023-01-06T01:37:28.439Z,1012.01
2023-01-06T01:38:28.413Z,1011.98
2023-01-06T01:39:28.388Z,1012.03
2023-01-06T01:40:28.364Z,1012.02
2023-01-06T01:41:28.339Z,1012.02
2023-01-06T01:42:28.319Z,1012.01
2023-01-06T01:43:28.286Z,1011.97
2023-01-06T01:44:28.267Z,1012.03
2023-01-06T01:45:28.237Z,1011.99
2023-01-06T01:46:28.402Z,1012.02
2023-01-06T01:47:28.195Z,1012.04
2023-01-06T01:48:28.174Z,1012.05
2023-01-06T01:49:28.141Z,1012.01
2023-01-06T01:50:28.126Z,1012.05
2023-01-06T01:51:28.093Z,1012.06
2023-01-06T01:52:28.070Z,1012.04
2023-01-06T01:53:28.044Z,1012.06
2023-01-06T01:54:28.027Z,1012.04
2023-01-06T01:55:27.995Z,1012.05
2023-01-06T01:56:27.967Z,1012.01
2023-01-06T01:57:27.940Z,1011.98
2023-01-06T01:58:27.923Z,1012.01
2023-01-06T01:59:27.894Z,1012.02
2023-01-06T02:00:27.875Z,1011.94
2023-01-06T02:01:27.987Z,1011.93
2023-01-06T02:02:28.031Z,1012.03
2023-01-06T02:03:27.797Z,1012.01
2023-01-06T02:04:27.774Z,1012.00
2023-01-06T02:05:27.746Z,1011.94
2023-01-06T02:06:27.729Z,1011.98
2023-01-06T02:07:27.701Z,1011.97
2023-01-06T02:08:27.685Z,1011.98
2023-01-06T02:09:27.654Z,1012.00
2023-01-06T02:10:27.624Z,1011.97
2023-01-06T02:11:27.593Z,1011.97
2023-01-06T02:12:27.585Z,1011.97
2023-01-06T02:13:27.549Z,1011.96
2023-01-06T02:14:27.529Z,1011.97
2023-01-06T02:15:27.496Z,1012.01
2023-01-06T02:16:27.485Z,1011.99
2023-01-06T02:17:27.453Z,1011.98
2023-01-06T02:18:27.544Z,1011.94
2023-01-06T02:19:27.402Z,1011.93
2023-01-06T02:20:27.383Z,1011.87
2023-01-06T02:21:27.350Z,1011.93
2023-01-06T02:22:27.332Z,1011.91
2023-01-06T02:23:27.296Z,1011.91
2023-01-06T02:24:27.287Z,1011.84
2023-01-06T02:25:27.256Z,1011.85
2023-01-06T02:26:27.234Z,1011.87
2023-01-06T02:27:27.204Z,1011.89
2023-01-06T02:28:27.179Z,1011.90
2023-01-06T02:29:27.149Z,1011.83
2023-01-06T02:30:27.128Z,1011.87
2023-01-06T02:31:27.157Z,1011.85
2023-01-06T02:32:27.081Z,1011.84
2023-01-06T02:33:27.054Z,1011.84
2023-01-06T02:34:27.149Z,1011.87
2023-01-06T02:35:27.003Z,1011.84
2023-01-06T02:36:26.985Z,1011.84
2023-01-06T02:37:26.954Z,1011.79
2023-01-06T02:38:26.936Z,1011.81
2023-01-06T02:39:26.902Z,1011.73
2023-01-06T02:40:26.884Z,1011.74
2023-01-06T02:41:26.872Z,1011.72
2023-01-06T02:42:26.840Z,1011.68
2023-01-06T02:43:26.806Z,1011.69
2023-01-06T02:44:26.784Z,1011.62
2023-01-06T02:45:26.765Z,1011.65
2023-01-06T02:46:26.780Z,1011.64
2023-01-06T02:47:26.711Z,1011.61
2023-01-06T02:48:26.695Z,1011.63
2023-01-06T02:49:26.669Z,1011.65
2023-01-06T02:50:26.756Z,1011.64
2023-01-06T02:51:26.608Z,1011.63
2023-01-06T02:52:26.600Z,1011.63
2023-01-06T02:53:26.573Z,1011.61
2023-01-06T02:54:26.533Z,1011.66
2023-01-06T02:55:26.514Z,1011.63
2023-01-06T02:56:26.495Z,1011.65
2023-01-06T02:57:26.472Z,1011.63
2023-01-06T02:58:26.434Z,1011.64
2023-01-06T02:59:26.409Z,1011.63
2023-01-06T03:00:26.384Z,1011.65
2023-01-06T03:01:26.506Z,1011.61
2023-01-06T03:02:26.373Z,1011.67
2023-01-06T03:03:26.330Z,1011.66
2023-01-06T03:04:26.340Z,1011.62
2023-01-06T03:05:26.269Z,1011.63
2023-01-06T03:06:26.347Z,1011.57
2023-01-06T03:07:26.213Z,1011.55
2023-01-06T03:08:26.189Z,1011.54
2023-01-06T03:09:26.166Z,1011.53
2023-01-06T03:10:26.141Z,1011.52
2023-01-06T03:11:26.116Z,1011.46
2023-01-06T03:12:26.091Z,1011.48
2023-01-06T03:13:26.067Z,1011.41
2023-01-06T03:14:26.038Z,1011.45
2023-01-06T03:15:26.015Z,1011.42
2023-01-06T03:16:26.104Z,1011.41
2023-01-06T03:17:25.991Z,1011.39
2023-01-06T03:18:25.961Z,1011.41
2023-01-06T03:19:25.922Z,1011.36
2023-01-06T03:20:25.921Z,1011.39
2023-01-06T03:21:25.869Z,1011.43
2023-01-06T03:22:25.975Z,1011.41
2023-01-06T03:23:25.823Z,1011.41
2023-01-06T03:24:25.812Z,1011.38
2023-01-06T03:25:25.772Z,1011.35
2023-01-06T03:26:25.752Z,1011.37
2023-01-06T03:27:25.731Z,1011.32
2023-01-06T03:28:25.696Z,1011.35
2023-01-06T03:29:25.669Z,1011.38
2023-01-06T03:30:25.656Z,1011.32
2023-01-06T03:31:25.659Z,1011.30
2023-01-06T03:32:25.595Z,1011.31
2023-01-06T03:33:25.574Z,1011.30
2023-01-06T03:34:25.545Z,1011.33
2023-01-06T03:35:25.524Z,1011.29
2023-01-06T03:36:25.500Z,1011.27
2023-01-06T03:37:25.492Z,1011.30
2023-01-06T03:38:25.476Z,1011.30
2023-01-06T03:39:25.423Z,1011.29
2023-01-06T03:40:25.407Z,1011.33
2023-01-06T03:41:25.383Z,1011.33
2023-01-06T03:42:35.914Z,1011.33
2023-01-06T03:43:25.328Z,1011.32
2023-01-06T03:44:25.301Z,1011.29
2023-01-06T03:45:25.282Z,1011.29
2023-01-06T03:46:25.288Z,1011.27
2023-01-06T03:47:25.236Z,1011.19
2023-01-06T03:48:25.205Z,1011.22
2023-01-06T03:49:25.183Z,1011.18
2023-01-06T03:50:25.155Z,1011.22
2023-01-06T03:51:25.129Z,1011.18
2023-01-06T03:52:25.114Z,1011.15
2023-01-06T03:53:25.087Z,1011.16
2023-01-06T03:54:25.178Z,1011.16
2023-01-06T03:55:25.033Z,1011.12
2023-01-06T03:56:25.012Z,1011.19
2023-01-06T03:57:24.993Z,1011.13
2023-01-06T03:58:24.977Z,1011.16
2023-01-06T03:59:24.935Z,1011.16
2023-01-06T04:00:24.910Z,1011.12
2023-01-06T04:01:25.009Z,1011.12
2023-01-06T04:02:24.861Z,1011.02
2023-01-06T04:03:24.853Z,1011.03
2023-01-06T04:04:24.809Z,1011.00
2023-01-06T04:05:24.786Z,1011.06
2023-01-06T04:06:24.757Z,1011.01
2023-01-06T04:07:24.733Z,1011.08
2023-01-06T04:08:24.718Z,1011.04
2023-01-06T04:09:24.696Z,1010.96
2023-01-06T04:10:24.795Z,1010.93
2023-01-06T04:11:24.633Z,1010.94
2023-01-06T04:12:24.624Z,1010.91
2023-01-06T04:13:24.588Z,1010.93
2023-01-06T04:14:24.560Z,1010.87
2023-01-06T04:15:24.534Z,1010.79
2023-01-06T04:16:24.561Z,1010.91
2023-01-06T04:17:24.500Z,1010.86
2023-01-06T04:18:24.470Z,1010.82
2023-01-06T04:19:24.446Z,1010.75
2023-01-06T04:20:24.426Z,1010.73
2023-01-06T04:21:24.394Z,1010.74
2023-01-06T04:22:24.366Z,1010.72
2023-01-06T04:23:24.350Z,1010.65
2023-01-06T04:24:24.310Z,1010.67
2023-01-06T04:25:24.294Z,1010.70
2023-01-06T04:26:24.389Z,1010.68
2023-01-06T04:27:24.258Z,1010.66
2023-01-06T04:28:24.225Z,1010.65
2023-01-06T04:29:24.203Z,1010.59
2023-01-06T04:30:24.172Z,1010.56
2023-01-06T04:31:24.179Z,1010.51
2023-01-06T04:32:24.124Z,1010.50
2023-01-06T04:33:24.098Z,1010.50
2023-01-06T04:34:24.077Z,1010.48
2023-01-06T04:35:24.058Z,1010.50
2023-01-06T04:36:24.029Z,1010.53
2023-01-06T04:37:24.001Z,1010.52
2023-01-06T04:38:23.970Z,1010.59
2023-01-06T04:39:23.958Z,1010.57
2023-01-06T04:40:23.914Z,1010.62
2023-01-06T04:41:23.896Z,1010.64
2023-01-06T04:42:23.894Z,1010.58
2023-01-06T04:43:23.843Z,1010.59
2023-01-06T04:44:23.826Z,1010.52
2023-01-06T04:45:23.819Z,1010.57
2023-01-06T04:46:23.778Z,1010.54
2023-01-06T04:47:23.745Z,1010.49
2023-01-06T04:48:23.717Z,1010.51
2023-01-06T04:49:23.702Z,1010.55
2023-01-06T04:50:23.675Z,1010.51
2023-01-06T04:51:23.644Z,1010.49
2023-01-06T04:52:23.617Z,1010.51
2023-01-06T04:53:23.601Z,1010.53
2023-01-06T04:54:23.568Z,1010.52
2023-01-06T04:55:23.556Z,1010.48
2023-01-06T04:56:25.267Z,1010.45
2023-01-06T04:57:23.503Z,1010.46
2023-01-06T04:58:23.592Z,1010.37
2023-01-06T04:59:23.449Z,1010.44
2023-01-06T05:00:23.423Z,1010.33
2023-01-06T05:01:23.563Z,1010.33
2023-01-06T05:02:23.373Z,1010.32
2023-01-06T05:03:23.353Z,1010.29
2023-01-06T05:04:23.322Z,1010.26
2023-01-06T05:05:23.300Z,1010.31
2023-01-06T05:06:23.277Z,1010.26
2023-01-06T05:07:23.256Z,1010.23
2023-01-06T05:08:23.219Z,1010.21
2023-01-06T05:09:23.200Z,1010.22
2023-01-06T05:10:23.174Z,1010.21
2023-01-06T05:11:23.152Z,1010.21
2023-01-06T05:12:23.129Z,1010.18
2023-01-06T05:13:23.108Z,1010.20
2023-01-06T05:14:23.206Z,1010.18
2023-01-06T05:15:23.063Z,1010.23
2023-01-06T05:16:23.060Z,1010.25
2023-01-06T05:17:23.004Z,1010.26
2023-01-06T05:18:22.977Z,1010.29
2023-01-06T05:19:22.951Z,1010.26
2023-01-06T05:20:22.926Z,1010.26
2023-01-06T05:21:22.905Z,1010.21
2023-01-06T05:22:22.881Z,1010.26
2023-01-06T05:23:22.856Z,1010.23
2023-01-06T05:24:22.827Z,1010.25
2023-01-06T05:25:22.822Z,1010.26
2023-01-06T05:26:22.781Z,1010.21
2023-01-06T05:27:22.751Z,1010.21
2023-01-06T05:28:22.741Z,1010.16
2023-01-06T05:29:22.710Z,1010.19
2023-01-06T05:31:22.760Z,1010.18
2023-01-06T05:32:22.631Z,1010.20
2023-01-06T05:33:22.611Z,1010.19
2023-01-06T05:34:22.588Z,1010.18
2023-01-06T05:35:22.563Z,1010.28
2023-01-06T05:36:22.541Z,1010.25
2023-01-06T05:37:22.505Z,1010.21
2023-01-06T05:38:22.479Z,1010.21
2023-01-06T05:39:22.458Z,1010.17
2023-01-06T05:40:22.428Z,1010.15
2023-01-06T05:41:22.407Z,1010.19
2023-01-06T05:42:22.384Z,1010.13
2023-01-06T05:43:22.356Z,1010.11
2023-01-06T05:44:22.346Z,1010.07
2023-01-06T05:45:22.320Z,1010.13
2023-01-06T05:46:22.411Z,1010.06
2023-01-06T05:47:22.267Z,1010.09
2023-01-06T05:48:22.233Z,1010.14
2023-01-06T05:49:22.223Z,1010.18
2023-01-06T05:50:22.186Z,1010.11
2023-01-06T05:51:22.161Z,1010.06
2023-01-06T05:52:22.136Z,1010.11
2023-01-06T05:53:22.114Z,1010.17
2023-01-06T05:54:22.098Z,1010.14
2023-01-06T05:55:22.074Z,1010.13
2023-01-06T05:56:22.036Z,1010.15
2023-01-06T05:57:22.014Z,1010.17
2023-01-06T05:58:21.984Z,1010.20
2023-01-06T05:59:21.963Z,1010.18
2023-01-06T06:00:21.954Z,1010.21
2023-01-06T06:01:21.971Z,1010.18
2023-01-06T06:02:22.027Z,1010.24
2023-01-06T06:03:21.921Z,1010.26
2023-01-06T06:04:21.839Z,1010.22
2023-01-06T06:05:21.816Z,1010.23
2023-01-06T06:06:21.783Z,1010.23
2023-01-06T06:07:21.775Z,1010.25
2023-01-06T06:08:21.754Z,1010.23
2023-01-06T06:09:21.719Z,1010.22
2023-01-06T06:10:21.697Z,1010.20
2023-01-06T06:11:21.669Z,1010.19
2023-01-06T06:12:21.653Z,1010.14
2023-01-06T06:13:23.164Z,1010.18
2023-01-06T06:14:21.590Z,1010.13
2023-01-06T06:15:21.567Z,1010.15
2023-01-06T06:16:21.575Z,1010.17
2023-01-06T06:17:21.519Z,1010.15
2023-01-06T06:18:21.518Z,1010.12
2023-01-06T06:19:21.474Z,1010.14
2023-01-06T06:20:21.449Z,1010.11
2023-01-06T06:21:21.426Z,1010.10
2023-01-06T06:22:21.392Z,1010.07
2023-01-06T06:23:21.381Z,1010.07
2023-01-06T06:24:21.354Z,1010.06
2023-01-06T06:25:21.320Z,1010.02
2023-01-06T06:26:21.293Z,1009.98
2023-01-06T06:27:21.271Z,1010.03
2023-01-06T06:28:21.244Z,1010.00
2023-01-06T06:29:21.216Z,1010.01
2023-01-06T06:30:21.192Z,1010.03
2023-01-06T06:31:21.215Z,1010.00
2023-01-06T06:32:21.143Z,1010.02
2023-01-06T06:33:21.122Z,1010.05
2023-01-06T06:34:21.207Z,1010.03
2023-01-06T06:35:21.068Z,1010.04
2023-01-06T06:36:21.044Z,1010.06
2023-01-06T06:37:21.023Z,1010.06
2023-01-06T06:38:20.992Z,1009.97
2023-01-06T06:39:20.970Z,1010.01
2023-01-06T06:40:20.943Z,1009.96
2023-01-06T06:41:20.932Z,1009.95
2023-01-06T06:42:20.909Z,1009.96
2023-01-06T06:43:20.876Z,1009.99
2023-01-06T06:44:20.852Z,1009.95
2023-01-06T06:45:20.823Z,1009.90
2023-01-06T06:46:20.820Z,1009.95
2023-01-06T06:47:20.768Z,1010.02
2023-01-06T06:48:20.745Z,1010.03
2023-01-06T06:49:20.721Z,1010.04
2023-01-06T06:50:20.818Z,1010.00
2023-01-06T06:51:20.676Z,1010.03
2023-01-06T06:52:20.655Z,1010.02
2023-01-06T06:53:20.620Z,1010.02
2023-01-06T06:54:20.602Z,1010.07
2023-01-06T06:55:20.586Z,1010.08
2023-01-06T06:56:20.548Z,1010.01
2023-01-06T06:57:20.576Z,1010.07
2023-01-06T06:58:20.501Z,1010.13
2023-01-06T06:59:20.474Z,1010.16
2023-01-06T07:00:20.452Z,1010.10
2023-01-06T07:01:20.822Z,1010.05
2023-01-06T07:02:20.571Z,1010.09
2023-01-06T07:03:20.380Z,1010.08
2023-01-06T07:04:20.370Z,1010.08
2023-01-06T07:05:20.327Z,1010.07
2023-01-06T07:06:20.420Z,1010.06
2023-01-06T07:07:20.274Z,1009.99
2023-01-06T07:08:20.254Z,1010.11
2023-01-06T07:09:20.225Z,1010.05
2023-01-06T07:10:20.201Z,1010.02
2023-01-06T07:11:20.185Z,1009.98
2023-01-06T07:12:20.158Z,1009.97
2023-01-06T07:13:20.122Z,1009.86
2023-01-06T07:14:20.121Z,1009.95
2023-01-06T07:15:20.073Z,1009.90
2023-01-06T07:16:20.142Z,1009.86
2023-01-06T07:17:20.030Z,1009.89
2023-01-06T07:18:20.010Z,1009.91
2023-01-06T07:19:19.975Z,1009.87
2023-01-06T07:20:19.958Z,1009.83
2023-01-06T07:21:19.924Z,1009.82
2023-01-06T07:22:20.031Z,1009.77
2023-01-06T07:23:19.896Z,1009.77
2023-01-06T07:24:19.855Z,1009.72
2023-01-06T07:25:19.839Z,1009.73
2023-01-06T07:26:19.808Z,1009.67
2023-01-06T07:27:19.774Z,1009.71
2023-01-06T07:28:19.754Z,1009.72
2023-01-06T07:29:19.725Z,1009.73
2023-01-06T07:30:19.713Z,1009.69
2023-01-06T07:31:19.777Z,1009.59
2023-01-06T07:32:19.656Z,1009.63
2023-01-06T07:33:19.629Z,1009.61
2023-01-06T07:34:19.612Z,1009.61
2023-01-06T07:35:19.573Z,1009.62
2023-01-06T07:36:19.563Z,1009.64
2023-01-06T07:37:19.529Z,1009.62
2023-01-06T07:38:19.633Z,1009.63
2023-01-06T07:39:19.485Z,1009.65
2023-01-06T07:40:19.460Z,1009.68
2023-01-06T07:41:19.452Z,1009.63
2023-01-06T07:42:19.408Z,1009.60
2023-01-06T07:43:19.378Z,1009.63
2023-01-06T07:44:19.363Z,1009.63
2023-01-06T07:45:19.385Z,1009.62
2023-01-06T07:46:19.417Z,1009.67
2023-01-06T07:47:19.306Z,1009.60
2023-01-06T07:48:19.293Z,1009.62
2023-01-06T07:49:19.236Z,1009.62
2023-01-06T07:50:19.217Z,1009.68
2023-01-06T07:51:19.181Z,1009.65
2023-01-06T07:52:19.158Z,1009.65
2023-01-06T07:53:19.131Z,1009.63
2023-01-06T07:54:19.244Z,1009.67
2023-01-06T07:55:19.087Z,1009.58
2023-01-06T07:56:19.064Z,1009.66
2023-01-06T07:57:19.033Z,1009.71
2023-01-06T07:58:19.014Z,1009.73
2023-01-06T07:59:18.989Z,1009.73
2023-01-06T08:00:18.970Z,1009.67
2023-01-06T08:01:19.044Z,1009.79
2023-01-06T08:02:18.950Z,1009.69
2023-01-06T08:03:19.007Z,1009.65
2023-01-06T08:04:18.864Z,1009.72
2023-01-06T08:05:18.836Z,1009.73
2023-01-06T08:06:18.816Z,1009.66
2023-01-06T08:07:18.785Z,1009.70
2023-01-06T08:08:18.788Z,1009.74
2023-01-06T08:09:18.762Z,1009.78
2023-01-06T08:10:18.833Z,1009.75
2023-01-06T08:11:18.696Z,1009.75
2023-01-06T08:12:18.663Z,1009.77
2023-01-06T08:13:20.445Z,1009.80
2023-01-06T08:14:18.630Z,1009.81
2023-01-06T08:15:18.596Z,1009.84
2023-01-06T08:16:18.638Z,1009.85
2023-01-06T08:17:18.534Z,1009.84
2023-01-06T08:18:18.517Z,1009.85
2023-01-06T08:19:18.482Z,1009.83
2023-01-06T08:20:18.463Z,1009.74
2023-01-06T08:21:18.448Z,1009.84
2023-01-06T08:22:18.423Z,1009.90
2023-01-06T08:23:18.398Z,1009.89
2023-01-06T08:24:18.366Z,1009.93
2023-01-06T08:25:18.351Z,1009.89
2023-01-06T08:26:18.437Z,1009.93
2023-01-06T08:27:18.303Z,1009.96
2023-01-06T08:28:18.286Z,1009.89
2023-01-06T08:29:18.246Z,1009.91
2023-01-06T08:30:18.215Z,1009.90
2023-01-06T08:31:18.233Z,1009.93
2023-01-06T08:32:18.171Z,1009.98
2023-01-06T08:33:18.139Z,1009.94
2023-01-06T08:34:18.130Z,1009.95
2023-01-06T08:35:18.094Z,1009.99
2023-01-06T08:36:18.067Z,1010.07
2023-01-06T08:37:18.044Z,1010.07
2023-01-06T08:38:18.033Z,1010.17
2023-01-06T08:39:17.989Z,1010.09
2023-01-06T08:40:17.963Z,1010.18
2023-01-06T08:41:17.945Z,1010.16
2023-01-06T08:42:18.055Z,1010.19
2023-01-06T08:43:17.918Z,1010.10
2023-01-06T08:44:17.869Z,1010.14
2023-01-06T08:45:17.843Z,1010.22
2023-01-06T08:46:17.879Z,1010.09
2023-01-06T08:47:17.789Z,1010.18
2023-01-06T08:48:17.776Z,1010.14
2023-01-06T08:49:17.757Z,1010.19
2023-01-06T08:50:17.728Z,1010.14
2023-01-06T08:51:17.707Z,1010.21
2023-01-06T08:52:17.678Z,1010.28
2023-01-06T08:53:17.645Z,1010.26
2023-01-06T08:54:17.618Z,1010.33
2023-01-06T08:55:17.606Z,1010.27
2023-01-06T08:56:17.573Z,1010.32
2023-01-06T08:57:17.540Z,1010.21
2023-01-06T08:58:17.548Z,1010.34
2023-01-06T08:59:17.501Z,1010.27
2023-01-06T09:00:17.476Z,1010.32
2023-01-06T09:01:17.550Z,1010.32
2023-01-06T09:02:17.583Z,1010.26
2023-01-06T09:03:17.394Z,1010.29
2023-01-06T09:04:17.375Z,1010.28
2023-01-06T09:05:17.447Z,1010.19
2023-01-06T09:06:17.325Z,1010.31
2023-01-06T09:07:17.322Z,1010.26
2023-01-06T09:08:17.271Z,1010.30
2023-01-06T09:09:17.255Z,1010.23
2023-01-06T09:10:17.225Z,1010.22
2023-01-06T09:11:17.189Z,1010.27
2023-01-06T09:12:17.173Z,1010.29
2023-01-06T09:13:17.153Z,1010.27
2023-01-06T09:14:17.263Z,1010.36
2023-01-06T09:15:17.091Z,1010.34
2023-01-06T09:16:17.159Z,1010.35
2023-01-06T09:17:17.048Z,1010.31
2023-01-06T09:18:17.032Z,1010.39
2023-01-06T09:19:17.010Z,1010.36
2023-01-06T09:20:16.980Z,1010.40
2023-01-06T09:21:16.950Z,1010.39
2023-01-06T09:22:16.926Z,1010.41
2023-01-06T09:23:16.894Z,1010.39
2023-01-06T09:24:16.873Z,1010.43
2023-01-06T09:25:16.846Z,1010.42
2023-01-06T09:26:16.824Z,1010.46
2023-01-06T09:27:16.806Z,1010.40
2023-01-06T09:28:16.769Z,1010.49
2023-01-06T09:29:16.765Z,1010.50
2023-01-06T09:30:16.878Z,1010.56
2023-01-06T09:31:16.753Z,1010.53
2023-01-06T09:32:16.677Z,1010.58
2023-01-06T09:33:16.643Z,1010.48
2023-01-06T09:34:16.629Z,1010.48
2023-01-06T09:35:16.597Z,1010.51
2023-01-06T09:36:16.595Z,1010.54
2023-01-06T09:37:16.550Z,1010.60
2023-01-06T09:38:16.536Z,1010.62
2023-01-06T09:39:18.782Z,1010.62
2023-01-06T09:40:16.473Z,1010.63
2023-01-06T09:41:16.457Z,1010.64
2023-01-06T09:42:16.426Z,1010.68
2023-01-06T09:43:16.399Z,1010.71
2023-01-06T09:44:16.378Z,1010.70
2023-01-06T09:45:16.347Z,1010.77
2023-01-06T09:46:16.508Z,1010.81
2023-01-06T09:47:16.303Z,1010.76
2023-01-06T09:48:16.274Z,1010.79
2023-01-06T09:49:16.252Z,1010.78
2023-01-06T09:50:16.243Z,1010.84
2023-01-06T09:51:16.199Z,1010.85
2023-01-06T09:52:16.185Z,1010.77
2023-01-06T09:53:16.150Z,1010.81
2023-01-06T09:54:16.132Z,1010.79
2023-01-06T09:55:16.099Z,1010.87
2023-01-06T09:56:16.101Z,1010.84
2023-01-06T09:57:16.055Z,1010.88
2023-01-06T09:58:16.025Z,1010.81
2023-01-06T09:59:16.001Z,1010.87
2023-01-06T10:00:17.235Z,1010.91
2023-01-06T10:01:15.995Z,1010.96
2023-01-06T10:02:16.069Z,1010.90
2023-01-06T10:03:15.898Z,1010.84
2023-01-06T10:04:15.969Z,1010.89
2023-01-06T10:05:15.859Z,1010.89
2023-01-06T10:06:17.314Z,1010.83
2023-01-06T10:07:15.805Z,1010.85
2023-01-06T10:08:15.791Z,1010.87
2023-01-06T10:09:15.753Z,1010.87
2023-01-06T10:10:15.735Z,1010.85
2023-01-06T10:11:15.700Z,1010.95
2023-01-06T10:12:15.685Z,1010.87
2023-01-06T10:13:15.662Z,1010.87
2023-01-06T10:14:15.641Z,1010.84
2023-01-06T10:15:15.604Z,1010.85
2023-01-06T10:16:15.592Z,1010.81
2023-01-06T10:17:15.552Z,1010.77
2023-01-06T10:18:15.653Z,1010.85
2023-01-06T10:19:15.507Z,1010.87
2023-01-06T10:20:15.503Z,1010.87
2023-01-06T10:21:15.456Z,1010.90
2023-01-06T10:22:15.432Z,1010.91
2023-01-06T10:23:15.418Z,1010.88
2023-01-06T10:24:15.387Z,1010.90
2023-01-06T10:25:15.354Z,1010.89
2023-01-06T10:26:15.335Z,1010.89
2023-01-06T10:27:15.303Z,1010.84
2023-01-06T10:28:15.285Z,1010.85
2023-01-06T10:29:15.254Z,1010.83
2023-01-06T10:30:15.243Z,1010.86
2023-01-06T10:31:15.283Z,1010.91
2023-01-06T10:32:15.181Z,1010.89
2023-01-06T10:33:15.157Z,1010.92
2023-01-06T10:34:15.257Z,1010.88
2023-01-06T10:35:15.123Z,1010.98
2023-01-06T10:36:15.086Z,1010.98
2023-01-06T10:37:15.055Z,1010.91
2023-01-06T10:38:15.036Z,1010.95
2023-01-06T10:39:15.025Z,1010.91
2023-01-06T10:40:14.987Z,1010.94
2023-01-06T10:41:14.963Z,1010.94
2023-01-06T10:42:14.938Z,1010.94
2023-01-06T10:43:14.920Z,1010.97
2023-01-06T10:44:14.888Z,1010.96
2023-01-06T10:45:14.864Z,1010.99
2023-01-06T10:46:14.838Z,1011.07
2023-01-06T10:47:14.817Z,1011.19
2023-01-06T10:48:14.791Z,1011.16
2023-01-06T10:49:14.765Z,1011.11
2023-01-06T10:50:14.767Z,1011.14
2023-01-06T10:51:14.716Z,1011.13
2023-01-06T10:52:14.696Z,1011.15
2023-01-06T10:53:14.668Z,1011.18
2023-01-06T10:54:14.644Z,1011.23
2023-01-06T10:55:14.612Z,1011.24
2023-01-06T10:56:14.598Z,1011.23
2023-01-06T10:57:14.565Z,1011.26
2023-01-06T10:58:14.541Z,1011.21
2023-01-06T10:59:14.520Z,1011.27
2023-01-06T11:00:14.525Z,1011.21
2023-01-06T11:01:14.614Z,1011.16
2023-01-06T11:02:14.598Z,1011.21
2023-01-06T11:03:31.884Z,1011.15
2023-01-06T11:04:14.400Z,1011.23
2023-01-06T11:05:14.372Z,1011.17
2023-01-06T11:06:14.463Z,1011.11
2023-01-06T11:07:14.331Z,1011.14
2023-01-06T11:08:14.301Z,1011.24
2023-01-06T11:09:14.274Z,1011.13
2023-01-06T11:10:14.251Z,1011.18
2023-01-06T11:11:27.409Z,1011.14
2023-01-06T11:12:14.203Z,1011.13
2023-01-06T11:13:14.169Z,1011.19
2023-01-06T11:14:14.160Z,1011.22
2023-01-06T11:15:14.125Z,1011.30
2023-01-06T11:16:14.157Z,1011.21
2023-01-06T11:17:14.080Z,1011.28
2023-01-06T11:18:14.059Z,1011.22
2023-01-06T11:19:14.029Z,1011.19
2023-01-06T11:20:13.999Z,1011.16
2023-01-06T11:21:13.983Z,1011.23
2023-01-06T11:22:14.074Z,1011.19
2023-01-06T11:23:13.935Z,1011.15
2023-01-06T11:24:13.906Z,1011.12
2023-01-06T11:25:13.887Z,1011.14
2023-01-06T11:26:13.857Z,1011.22
2023-01-06T11:27:13.833Z,1011.18
2023-01-06T11:28:13.815Z,1011.16
2023-01-06T11:29:13.786Z,1011.05
2023-01-06T11:30:14.220Z,1011.06
2023-01-06T11:31:13.824Z,1011.09
2023-01-06T11:32:13.708Z,1011.04
2023-01-06T11:33:13.698Z,1011.09
2023-01-06T11:34:13.663Z,1011.08
2023-01-06T11:35:13.641Z,1011.01
2023-01-06T11:36:13.624Z,1011.04
2023-01-06T11:37:13.600Z,1011.05
2023-01-06T11:38:13.695Z,1011.03
2023-01-06T11:39:13.545Z,1011.06
2023-01-06T11:40:13.524Z,1011.02
2023-01-06T11:41:13.509Z,1011.01
2023-01-06T11:42:13.474Z,1011.07
2023-01-06T11:43:13.453Z,1011.10
2023-01-06T11:44:13.422Z,1011.01
2023-01-06T11:45:13.405Z,1011.05
2023-01-06T11:46:13.454Z,1011.06
2023-01-06T11:47:13.351Z,1011.07
2023-01-06T11:48:13.325Z,1011.09
2023-01-06T11:49:14.706Z,1011.04
2023-01-06T11:50:13.279Z,1011.05
2023-01-06T11:51:13.256Z,1011.01
2023-01-06T11:52:13.231Z,1011.02
2023-01-06T11:53:13.216Z,1011.00
2023-01-06T11:54:13.300Z,1011.06
2023-01-06T11:55:13.511Z,1010.96
2023-01-06T11:56:13.140Z,1010.98
2023-01-06T11:57:13.115Z,1010.97
2023-01-06T11:58:13.083Z,1011.04
2023-01-06T11:59:13.066Z,1011.04
2023-01-06T12:00:13.037Z,1011.01
2023-01-06T12:01:13.062Z,1011.06
2023-01-06T12:02:13.031Z,1011.04
2023-01-06T12:03:13.064Z,1011.02
2023-01-06T12:04:12.937Z,1011.04
2023-01-06T12:05:12.913Z,1011.01
2023-01-06T12:06:12.892Z,1011.07